Time;durP1;ratioP1;P1;durP2;ratioP2;P2;SDS_P1;SDS_P2;PMS_P1;PMS_P2;Temp;Humidity;BMP_temperature;BMP_pressure;BME280_temperature;BME280_humidity;BME280_pressure;Samples;Min_cycle;Max_cycle;Signal;HPM_P1;HPM_P2
2021/11/18 00:00:36;;;;;;;;;26.25;20.50;;;;;8.83;79.21;102072.38;5017989;28;45295;-77
2021/11/18 00:03:04;;;;;;;;;34.00;26.00;;;;;8.84;79.41;102073.25;5016339;28;45333;-75
2021/11/18 00:05:30;;;;;;;;;33.50;26.75;;;;;8.80;79.41;102069.78;5014779;28;46017;-73
2021/11/18 00:07:56;;;;;;;;;31.50;25.25;;;;;8.77;79.76;102069.81;5013539;27;45231;-76
2021/11/18 00:10:31;;;;;;;;;30.00;26.50;;;;;8.66;79.83;102055.94;5016712;28;45439;-74
2021/11/18 00:13:00;;;;;;;;;28.00;23.50;;;;;8.75;79.84;102074.22;5021293;28;45423;-74
2021/11/18 00:15:27;;;;;;;;;35.25;25.75;;;;;8.72;80.08;102069.00;5020404;27;47551;-76
2021/11/18 00:17:58;;;;;;;;;27.25;25.00;;;;;8.68;80.37;102067.28;5015075;28;45353;-76
2021/11/18 00:20:29;;;;;;;;;39.25;25.50;;;;;8.66;80.42;102071.66;5014415;28;45907;-72
2021/11/18 00:22:55;;;;;;;;;25.50;24.75;;;;;8.60;80.26;102073.47;5017944;28;45268;-75
2021/11/18 00:25:22;;;;;;;;;20.50;19.50;;;;;8.59;80.29;102076.97;5016403;28;45373;-75
2021/11/18 00:27:47;;;;;;;;;25.75;21.75;;;;;8.51;80.65;102063.03;5013724;27;45214;-77
2021/11/18 00:30:14;;;;;;;;;28.50;25.00;;;;;8.53;80.11;102078.75;5106189;27;45500;-75
2021/11/18 00:32:40;;;;;;;;;25.00;19.75;;;;;8.50;80.24;102070.91;5119133;27;45383;-79
2021/11/18 00:35:09;;;;;;;;;30.50;22.75;;;;;8.45;80.78;102058.66;5119933;27;46326;-78
2021/11/18 00:37:35;;;;;;;;;26.25;22.50;;;;;8.43;81.08;102052.56;5122704;27;45438;-77
2021/11/18 00:40:02;;;;;;;;;29.25;24.00;;;;;8.42;81.18;102052.56;5125395;27;45276;-79
2021/11/18 00:42:28;;;;;;;;;29.00;22.75;;;;;8.39;80.70;102042.09;5122271;27;45169;-78
2021/11/18 00:44:57;;;;;;;;;28.00;24.25;;;;;8.29;81.28;102021.19;5122749;27;45358;-79
2021/11/18 00:47:22;;;;;;;;;24.75;22.50;;;;;8.34;80.85;102035.13;5123091;27;45351;-80
2021/11/18 00:49:48;;;;;;;;;28.75;21.00;;;;;8.31;81.09;102029.91;5158248;27;45398;-80
2021/11/18 00:52:13;;;;;;;;;29.00;24.50;;;;;8.31;81.60;102034.31;5122918;27;45640;-78
2021/11/18 00:54:38;;;;;;;;;25.25;20.50;;;;;8.26;81.05;102031.69;5121945;27;45346;-76
2021/11/18 00:57:04;;;;;;;;;26.25;21.50;;;;;8.23;81.57;102025.63;5122971;27;45295;-73
2021/11/18 00:59:30;;;;;;;;;24.75;20.00;;;;;8.24;81.93;102035.22;5121904;27;45331;-78
2021/11/18 01:01:55;;;;;;;;;25.25;23.25;;;;;8.22;81.67;102034.38;5126928;27;45393;-77
2021/11/18 01:04:22;;;;;;;;;29.75;24.50;;;;;8.21;81.63;102030.88;5124574;27;45240;-79
2021/11/18 01:06:48;;;;;;;;;23.00;21.00;;;;;8.18;81.41;102034.41;5061264;27;45387;-77
2021/11/18 01:09:14;;;;;;;;;24.00;21.75;;;;;8.18;81.66;102033.50;5015955;28;45362;-78
2021/11/18 01:11:40;;;;;;;;;29.25;22.75;;;;;8.13;82.23;102030.94;5016787;28;45447;-79
2021/11/18 01:14:09;;;;;;;;;26.00;23.00;;;;;8.13;82.31;102046.66;5017944;28;45626;-81
2021/11/18 01:16:37;;;;;;;;;26.50;21.25;;;;;8.12;82.17;102050.16;5018078;28;45387;-79
2021/11/18 01:19:05;;;;;;;;;25.00;23.00;;;;;8.12;82.16;102054.50;5017869;28;45284;-79
2021/11/18 01:21:30;;;;;;;;;25.00;20.75;;;;;8.10;82.25;102061.50;5018210;28;45560;-79
2021/11/18 01:23:56;;;;;;;;;31.50;24.00;;;;;8.09;82.11;102065.91;5020406;28;45441;-79
2021/11/18 01:26:22;;;;;;;;;22.50;21.00;;;;;8.08;82.69;102063.28;5018590;28;45873;-79
2021/11/18 01:28:48;;;;;;;;;33.00;22.00;;;;;8.03;82.68;102060.69;5018307;28;45589;-78
2021/11/18 01:31:16;;;;;;;;;26.00;22.75;;;;;7.95;82.66;102047.63;5018736;28;45352;-80
2021/11/18 01:33:42;;;;;;;;;21.25;20.00;;;;;8.02;82.60;102059.81;5014774;27;45441;-77
2021/11/18 01:36:08;;;;;;;;;23.75;20.75;;;;;8.01;83.22;102063.31;5014285;28;45335;-78
2021/11/18 01:38:35;;;;;;;;;24.00;19.00;;;;;7.91;83.03;102043.28;5016392;28;45158;-75
2021/11/18 01:41:05;;;;;;;;;22.25;19.25;;;;;7.98;83.00;102062.47;5015930;28;45314;-73
2021/11/18 01:43:36;;;;;;;;;27.25;23.75;;;;;7.97;82.71;102058.97;5013595;28;48417;-77
2021/11/18 01:46:06;;;;;;;;;11.25;7.25;;;;;7.93;82.53;102065.09;5001759;28;45459;-77
2021/11/18 01:48:31;;;;;;;;;22.75;18.25;;;;;7.92;82.75;102060.75;4990715;27;45418;-78
2021/11/18 01:50:57;;;;;;;;;22.75;20.00;;;;;7.90;83.50;102071.22;5008981;28;45482;-80
2021/11/18 01:53:35;;;;;;;;;25.75;20.75;;;;;7.87;83.40;102059.91;4993342;28;45410;-77
2021/11/18 01:56:02;;;;;;;;;34.00;26.00;;;;;7.87;83.81;102078.25;5000964;28;45358;-75
2021/11/18 01:58:28;;;;;;;;;27.00;22.00;;;;;7.86;83.12;102087.84;5001495;28;45308;-78
2021/11/18 02:00:56;;;;;;;;;24.00;21.25;;;;;7.83;83.79;102081.75;4997996;28;45411;-76
2021/11/18 02:03:22;;;;;;;;;24.50;22.75;;;;;7.79;83.38;102082.66;4999576;28;46611;-77
2021/11/18 02:05:57;;;;;;;;;25.25;21.75;;;;;7.80;83.16;102081.75;4999367;28;45470;-78
2021/11/18 02:08:23;;;;;;;;;24.50;21.00;;;;;7.71;83.65;102069.56;4995277;28;45332;-76
2021/11/18 02:10:51;;;;;;;;;25.25;21.50;;;;;7.78;83.56;102089.63;4997299;28;45357;-77
2021/11/18 02:13:18;;;;;;;;;27.25;24.25;;;;;7.75;83.56;102080.03;4993625;28;46101;-79
2021/11/18 02:15:51;;;;;;;;;25.75;24.25;;;;;7.75;83.89;102079.16;4993643;28;45352;-79
2021/11/18 02:18:23;;;;;;;;;26.75;22.75;;;;;7.73;83.59;102084.41;4993830;28;45361;-76
2021/11/18 02:20:53;;;;;;;;;25.25;23.75;;;;;7.72;84.06;102080.06;4998808;28;45397;-79
2021/11/18 02:23:24;;;;;;;;;24.00;22.00;;;;;7.71;83.81;102080.94;5003448;28;45185;-75
2021/11/18 02:25:51;;;;;;;;;25.50;21.75;;;;;7.70;83.38;102081.81;4995976;28;45320;-74
2021/11/18 02:28:19;;;;;;;;;27.00;23.25;;;;;7.68;83.69;102086.19;4993011;28;45419;-69
2021/11/18 02:30:45;;;;;;;;;24.50;20.00;;;;;7.61;83.69;102074.00;4997361;28;45532;-69
2021/11/18 02:33:12;;;;;;;;;25.75;23.75;;;;;7.64;84.09;102079.22;4994241;28;45349;-68
2021/11/18 02:35:40;;;;;;;;;29.00;22.00;;;;;7.64;83.46;102075.72;4995532;28;45366;-71
2021/11/18 02:38:05;;;;;;;;;26.25;21.75;;;;;7.62;83.50;102080.09;4997577;28;45381;-78
2021/11/18 02:40:31;;;;;;;;;29.75;24.50;;;;;7.59;84.36;102084.47;5002283;28;45579;-78
2021/11/18 02:42:59;;;;;;;;;31.00;25.75;;;;;7.57;83.60;102082.72;5000320;28;45350;-75
2021/11/18 02:45:30;;;;;;;;;27.75;23.75;;;;;7.58;84.67;102085.34;4993245;27;45319;-71
2021/11/18 02:47:57;;;;;;;;;26.75;24.00;;;;;7.56;84.24;102075.75;4993235;28;45448;-76
2021/11/18 02:50:27;;;;;;;;;31.25;25.75;;;;;7.53;84.24;102081.84;4998552;27;45314;-78
2021/11/18 02:52:53;;;;;;;;;30.25;23.75;;;;;7.49;83.79;102061.81;4995406;28;45235;-76
2021/11/18 02:55:32;;;;;;;;;27.25;25.25;;;;;7.53;84.39;102081.84;5004220;28;44860;-78
2021/11/18 02:57:57;;;;;;;;;27.75;24.00;;;;;7.52;83.94;102094.97;4999344;28;45252;-78
2021/11/18 03:00:26;;;;;;;;;26.25;23.75;;;;;7.42;84.14;102089.75;4994300;28;45321;-77
2021/11/18 03:02:53;;;;;;;;;26.75;22.75;;;;;7.49;84.42;102098.47;4994037;28;45336;-76
2021/11/18 03:05:20;;;;;;;;;25.75;23.00;;;;;7.47;84.77;102089.72;4997893;28;45359;-74
2021/11/18 03:07:46;;;;;;;;;23.00;22.50;;;;;7.42;84.99;102081.03;4994925;28;45354;-72
2021/11/18 03:10:14;;;;;;;;;22.75;20.75;;;;;7.43;84.10;102091.50;4996245;28;45285;-76
2021/11/18 03:12:40;;;;;;;;;23.75;20.75;;;;;7.43;84.72;102098.47;4995619;28;45376;-75
2021/11/18 03:15:08;;;;;;;;;21.50;18.75;;;;;7.41;84.22;102101.09;4995493;28;45373;-75
2021/11/18 03:17:34;;;;;;;;;27.00;21.75;;;;;7.36;84.85;102095.00;4995629;27;45363;-75
2021/11/18 03:20:00;;;;;;;;;22.50;18.50;;;;;7.40;84.74;102103.72;4997935;28;45448;-80
2021/11/18 03:22:25;;;;;;;;;27.25;18.75;;;;;7.40;84.37;102104.56;4999341;28;45243;-77
2021/11/18 03:24:50;;;;;;;;;25.50;21.75;;;;;7.40;85.01;102101.97;4995490;28;45373;-77
2021/11/18 03:27:16;;;;;;;;;14.50;12.00;;;;;7.36;84.46;102095.00;4995702;28;45440;-74
2021/11/18 03:29:41;;;;;;;;;25.25;21.25;;;;;7.20;85.06;102078.47;4995696;28;45402;-73
2021/11/18 03:32:07;;;;;;;;;20.00;17.00;;;;;7.36;84.52;102099.38;4995319;28;45467;-76
2021/11/18 03:34:34;;;;;;;;;29.75;21.50;;;;;7.35;85.11;102105.47;4995575;28;45412;-78
2021/11/18 03:36:59;;;;;;;;;20.25;20.25;;;;;7.35;84.56;102111.56;5001206;28;45392;-78
2021/11/18 03:39:26;;;;;;;;;25.00;19.00;;;;;7.32;84.70;102106.34;4998831;28;45648;-79
2021/11/18 03:41:57;;;;;;;;;24.25;21.75;;;;;7.30;84.93;102102.84;4996713;28;48886;-78
2021/11/18 03:44:24;;;;;;;;;26.00;21.25;;;;;7.30;85.19;102106.34;4998878;28;45451;-77
2021/11/18 03:46:59;;;;;;;;;24.00;21.00;;;;;7.29;84.34;102106.34;5002649;28;45317;-76
2021/11/18 03:49:26;;;;;;;;;32.00;23.25;;;;;7.25;85.19;102094.13;4995948;28;45339;-78
2021/11/18 03:51:54;;;;;;;;;23.00;20.50;;;;;7.26;84.38;102096.78;4977710;28;48117;-79
2021/11/18 03:54:22;;;;;;;;;23.50;21.25;;;;;7.25;85.38;102102.88;4995086;28;45496;-71
2021/11/18 03:56:49;;;;;;;;;26.50;21.75;;;;;7.26;85.17;102108.97;4995240;28;45351;-78
2021/11/18 03:59:18;;;;;;;;;27.50;22.50;;;;;7.23;85.10;102114.22;4995899;28;45535;-76
2021/11/18 04:01:46;;;;;;;;;20.00;20.00;;;;;7.21;85.18;102126.44;5002593;28;45490;-78
2021/11/18 04:04:15;;;;;;;;;26.25;21.25;;;;;7.19;84.81;102120.31;5008111;28;45451;-78
2021/11/18 04:06:41;;;;;;;;;27.75;21.50;;;;;7.18;84.59;102110.72;4997701;28;45459;-77
2021/11/18 04:09:07;;;;;;;;;25.50;20.00;;;;;7.16;85.06;102115.97;4996461;28;45177;-77
2021/11/18 04:11:34;;;;;;;;;26.00;20.75;;;;;7.15;84.96;102119.47;4998932;28;45449;-76
2021/11/18 04:13:59;;;;;;;;;26.50;18.50;;;;;7.15;84.73;102127.31;4994340;28;45377;-74
2021/11/18 04:16:25;;;;;;;;;24.25;19.50;;;;;7.15;84.82;102122.09;4994456;28;45173;-74
2021/11/18 04:18:51;;;;;;;;;29.25;23.25;;;;;7.12;85.70;102122.94;4994196;28;45641;-77
2021/11/18 04:21:17;;;;;;;;;26.25;22.00;;;;;7.11;84.70;102133.44;4993777;28;46234;-77
2021/11/18 04:23:42;;;;;;;;;22.50;18.75;;;;;7.09;85.48;102136.03;4998911;28;45391;-77
2021/11/18 04:26:08;;;;;;;;;29.75;26.50;;;;;7.07;85.14;102137.78;4997286;28;45402;-77
2021/11/18 04:28:34;;;;;;;;;30.50;25.75;;;;;7.08;85.12;102142.16;4998118;28;45369;-79
2021/11/18 04:31:09;;;;;;;;;27.25;23.25;;;;;7.06;85.40;102138.66;4995161;28;46053;-77
2021/11/18 04:33:36;;;;;;;;;21.25;20.50;;;;;6.98;85.07;102129.94;4997101;27;45431;-74
2021/11/18 04:36:05;;;;;;;;;31.25;25.25;;;;;7.03;85.58;102137.81;4998258;28;45271;-79
2021/11/18 04:38:30;;;;;;;;;33.25;23.25;;;;;7.03;84.90;102141.28;5004405;28;45537;-77
2021/11/18 04:40:57;;;;;;;;;29.00;21.75;;;;;7.05;85.13;102152.63;5002227;28;47329;-77
2021/11/18 04:43:23;;;;;;;;;27.75;22.00;;;;;7.05;85.02;102151.75;4996977;28;45419;-69
2021/11/18 04:45:49;;;;;;;;;25.00;21.00;;;;;7.03;85.24;102154.34;4995418;28;45467;-75
2021/11/18 04:48:15;;;;;;;;;24.25;21.00;;;;;7.01;84.68;102150.88;4995835;28;45405;-72
2021/11/18 04:50:41;;;;;;;;;28.50;24.00;;;;;7.00;85.10;102159.59;4994072;28;45479;-71
2021/11/18 04:53:07;;;;;;;;;29.50;18.75;;;;;6.99;84.79;102155.22;4994846;28;45188;-75
2021/11/18 04:55:36;;;;;;;;;22.50;19.50;;;;;7.02;85.25;102168.31;4996400;28;45262;-76
2021/11/18 04:58:02;;;;;;;;;25.75;21.00;;;;;7.03;85.30;102171.81;4998682;28;45485;-73
2021/11/18 05:00:37;;;;;;;;;22.00;19.75;;;;;6.98;85.35;102163.94;4995251;28;47218;-75
2021/11/18 05:03:04;;;;;;;;;27.25;22.50;;;;;6.99;85.76;102181.41;4997193;28;45911;-77
2021/11/18 05:05:30;;;;;;;;;25.25;23.75;;;;;6.95;85.11;102163.94;4992820;28;45449;-75
2021/11/18 05:07:55;;;;;;;;;28.25;23.00;;;;;6.98;84.91;102166.56;4994328;28;45268;-77
2021/11/18 05:10:22;;;;;;;;;28.00;22.25;;;;;6.96;84.91;102163.97;4994753;28;45999;-75
2021/11/18 05:12:48;;;;;;;;;27.50;24.00;;;;;6.97;85.64;102178.78;4994619;28;45371;-79
2021/11/18 05:15:17;;;;;;;;;29.75;24.25;;;;;6.95;85.46;102167.44;4994358;28;45416;-75
2021/11/18 05:17:44;;;;;;;;;29.50;25.00;;;;;6.97;85.03;102167.44;4995925;28;45599;-73
2021/11/18 05:20:10;;;;;;;;;31.00;23.00;;;;;6.97;84.87;102164.81;5002414;28;46091;-76
2021/11/18 05:22:35;;;;;;;;;28.25;23.75;;;;;6.97;85.04;102164.81;4999171;28;45352;-78
2021/11/18 05:25:01;;;;;;;;;36.50;28.50;;;;;6.97;85.99;102170.06;4994871;28;45381;-77
2021/11/18 05:27:26;;;;;;;;;33.50;27.25;;;;;6.97;85.54;102177.91;4995225;28;45346;-74
2021/11/18 05:29:52;;;;;;;;;28.00;26.00;;;;;6.95;85.53;102172.69;4994306;28;46036;-79
2021/11/18 05:32:18;;;;;;;;;27.25;25.00;;;;;6.96;84.47;102177.03;4994321;27;45223;-76
2021/11/18 05:34:44;;;;;;;;;32.25;27.75;;;;;6.89;85.14;102163.94;4994316;28;45196;-78
2021/11/18 05:37:10;;;;;;;;;27.50;22.25;;;;;6.85;84.89;102158.72;4997683;28;45535;-76
2021/11/18 05:39:35;;;;;;;;;27.00;23.00;;;;;6.84;84.78;102161.31;4994997;28;46089;-77
2021/11/18 05:42:03;;;;;;;;;29.50;23.25;;;;;6.84;85.45;102166.53;4994003;28;45327;-75
2021/11/18 05:44:28;;;;;;;;;30.50;27.50;;;;;6.87;85.71;102177.91;4993672;28;45355;-77
2021/11/18 05:46:54;;;;;;;;;30.50;25.75;;;;;6.93;85.33;102182.28;4996643;28;45447;-74
2021/11/18 05:49:19;;;;;;;;;33.50;27.00;;;;;6.93;85.45;102186.63;4996127;28;47217;-77
2021/11/18 05:51:48;;;;;;;;;30.50;26.50;;;;;6.75;85.68;102153.47;4996635;28;45258;-77
2021/11/18 05:54:14;;;;;;;;;30.25;26.25;;;;;6.95;85.12;102182.25;4996117;28;45494;-77
2021/11/18 05:56:39;;;;;;;;;34.75;27.00;;;;;6.88;85.59;102178.75;4993636;28;45532;-76
2021/11/18 05:59:05;;;;;;;;;31.50;25.50;;;;;6.92;85.50;102184.88;4998994;28;45455;-75
2021/11/18 06:01:31;;;;;;;;;32.00;25.50;;;;;6.89;84.92;102185.72;5000239;28;45351;-75
2021/11/18 06:03:58;;;;;;;;;25.50;22.75;;;;;6.98;84.75;102205.81;4997866;28;45314;-76
2021/11/18 06:06:23;;;;;;;;;30.50;25.00;;;;;6.96;85.55;102200.59;4994667;28;45476;-77
2021/11/18 06:08:49;;;;;;;;;31.50;27.25;;;;;6.97;85.82;102197.09;4994704;28;45383;-77
2021/11/18 06:11:15;;;;;;;;;28.00;26.25;;;;;6.94;85.25;102189.25;4994729;28;45307;-78
2021/11/18 06:13:41;;;;;;;;;26.75;23.25;;;;;6.96;85.03;102187.50;4992651;28;45294;-77
2021/11/18 06:16:07;;;;;;;;;35.75;26.75;;;;;7.00;85.64;102193.59;4993925;28;45688;-76
2021/11/18 06:18:33;;;;;;;;;35.25;28.75;;;;;7.04;85.29;102191.88;4998866;28;45488;-74
2021/11/18 06:20:59;;;;;;;;;40.75;29.50;;;;;7.01;84.81;102190.13;4997409;28;45235;-77
2021/11/18 06:23:25;;;;;;;;;34.50;31.50;;;;;7.06;85.25;102205.84;4997634;28;45417;-74
2021/11/18 06:25:51;;;;;;;;;38.50;30.00;;;;;7.08;86.04;102191.84;4996517;28;45545;-73
2021/11/18 06:28:18;;;;;;;;;36.75;28.25;;;;;7.10;85.59;102203.19;5002256;28;45391;-77
2021/11/18 06:30:49;;;;;;;;;26.25;22.25;;;;;7.11;84.58;102210.19;4993299;28;45402;-76
2021/11/18 06:33:15;;;;;;;;;30.75;25.75;;;;;7.07;85.05;102207.56;4995368;28;45334;-75
2021/11/18 06:35:41;;;;;;;;;34.50;26.50;;;;;7.11;85.01;102215.41;4993752;28;45429;-76
2021/11/18 06:38:07;;;;;;;;;35.50;27.75;;;;;7.10;84.57;102211.06;4994494;28;46127;-79
2021/11/18 06:40:32;;;;;;;;;30.00;26.50;;;;;7.12;85.08;102219.78;4996824;28;45286;-77
2021/11/18 06:42:58;;;;;;;;;28.50;25.50;;;;;7.14;85.53;102220.66;4998927;28;45911;-71
2021/11/18 06:45:27;;;;;;;;;40.00;28.25;;;;;7.15;85.70;102217.16;4998464;28;45635;-77
2021/11/18 06:47:52;;;;;;;;;35.75;31.00;;;;;7.19;85.15;102225.00;4996305;27;48106;-77
2021/11/18 06:50:18;;;;;;;;;27.50;24.00;;;;;7.18;85.19;102218.03;4996440;28;45474;-79
2021/11/18 06:52:44;;;;;;;;;35.50;32.00;;;;;7.18;84.60;102223.25;4994574;28;45494;-76
2021/11/18 06:55:10;;;;;;;;;29.25;23.75;;;;;7.04;85.14;102197.09;4996590;28;45351;-79
2021/11/18 06:57:36;;;;;;;;;38.00;29.25;;;;;7.18;85.56;102224.16;4997368;28;46145;-78
2021/11/18 07:00:06;;;;;;;;;36.25;28.50;;;;;7.21;84.75;102223.25;5001934;28;44827;-80
2021/11/18 07:02:32;;;;;;;;;34.75;29.50;;;;;7.22;85.40;102225.91;5004057;28;45235;-78
2021/11/18 07:04:57;;;;;;;;;32.00;26.75;;;;;7.25;84.43;102227.63;5004649;28;45204;-70
2021/11/18 07:07:23;;;;;;;;;29.50;28.00;;;;;7.28;84.20;102227.63;5000549;28;46430;-78
2021/11/18 07:09:48;;;;;;;;;32.50;26.50;;;;;7.28;84.82;102228.50;5000730;28;45295;-76
2021/11/18 07:12:17;;;;;;;;;41.50;33.75;;;;;7.34;84.85;102227.63;4999090;28;45236;-73
2021/11/18 07:14:44;;;;;;;;;36.50;28.50;;;;;7.37;84.77;102235.47;4996512;28;45559;-76
2021/11/18 07:17:10;;;;;;;;;34.00;32.00;;;;;7.38;84.48;102234.59;4994773;28;47415;-78
2021/11/18 07:19:36;;;;;;;;;32.75;29.50;;;;;7.42;84.54;102239.00;4996572;28;45272;-77
2021/11/18 07:22:02;;;;;;;;;32.00;28.50;;;;;7.47;84.72;102233.75;5004804;28;45266;-77
2021/11/18 07:24:28;;;;;;;;;37.50;31.75;;;;;7.52;84.03;102237.22;5004999;28;45253;-78
2021/11/18 07:26:54;;;;;;;;;35.25;31.75;;;;;7.52;84.41;102233.75;5004033;28;45232;-77
2021/11/18 07:29:22;;;;;;;;;33.25;29.25;;;;;7.60;84.52;102237.25;5001751;27;45283;-81
2021/11/18 07:31:48;;;;;;;;;35.00;31.00;;;;;7.64;84.37;102228.50;4997181;28;45335;-79
2021/11/18 07:34:13;;;;;;;;;38.50;31.25;;;;;7.55;83.71;102205.81;5000943;28;45267;-79
2021/11/18 07:36:39;;;;;;;;;40.00;31.00;;;;;7.77;83.60;102239.81;4999709;28;45718;-75
2021/11/18 07:39:04;;;;;;;;;46.00;35.00;;;;;7.82;83.85;102240.69;4996200;28;45432;-76
2021/11/18 07:41:30;;;;;;;;;48.00;38.50;;;;;7.86;83.61;102233.69;4996535;28;45363;-77
2021/11/18 07:43:56;;;;;;;;;42.25;31.75;;;;;7.94;84.15;102228.41;4996597;28;45700;-78
2021/11/18 07:46:22;;;;;;;;;41.50;32.25;;;;;7.94;83.40;102218.81;4996948;28;45320;-79
2021/11/18 07:48:49;;;;;;;;;39.00;30.50;;;;;7.96;83.42;102219.69;4995964;28;45288;-76
2021/11/18 07:51:17;;;;;;;;;40.50;31.75;;;;;8.07;82.83;102230.16;4995152;28;46339;-75
2021/11/18 07:53:44;;;;;;;;;30.00;25.00;;;;;8.12;83.62;102225.78;5039639;27;45547;-70
2021/11/18 07:56:11;;;;;;;;;37.00;29.75;;;;;8.17;82.81;102231.88;5088013;27;45435;-68
2021/11/18 07:58:36;;;;;;;;;33.75;29.00;;;;;8.21;82.76;102227.47;5118584;27;45340;-71
2021/11/18 08:01:03;;;;;;;;;42.50;32.50;;;;;8.24;83.13;102224.84;5117663;27;45472;-68
2021/11/18 08:03:30;;;;;;;;;45.50;37.00;;;;;8.30;82.82;102237.06;5117300;27;45487;-71
2021/11/18 08:05:58;;;;;;;;;47.50;36.00;;;;;8.33;82.69;102240.53;5117159;27;47562;-73
2021/11/18 08:08:23;;;;;;;;;51.00;39.25;;;;;8.37;82.15;102254.50;5117832;27;45629;-70
2021/11/18 08:10:49;;;;;;;;;49.50;38.25;;;;;8.33;82.21;102247.53;5119430;27;45346;-71
2021/11/18 08:13:15;;;;;;;;;48.75;39.75;;;;;8.41;81.60;102263.22;5119043;27;45681;-75
2021/11/18 08:15:40;;;;;;;;;50.50;37.25;;;;;8.41;81.50;102264.09;5083849;27;46913;-71
2021/11/18 08:18:06;;;;;;;;;49.25;38.00;;;;;8.36;80.89;102242.28;5056097;27;45489;-74
2021/11/18 08:20:32;;;;;;;;;52.00;44.25;;;;;8.43;80.87;102256.22;5118580;27;45407;-75
2021/11/18 08:22:58;;;;;;;;;55.25;43.75;;;;;8.44;81.25;102261.47;5120577;27;45319;-75
2021/11/18 08:25:25;;;;;;;;;57.50;42.00;;;;;8.46;81.02;102261.44;5121593;27;45276;-76
2021/11/18 08:27:51;;;;;;;;;52.00;43.00;;;;;8.48;81.06;102267.56;5118386;27;45576;-79
2021/11/18 08:30:20;;;;;;;;;53.50;43.25;;;;;8.50;81.03;102262.34;5151097;27;45464;-78
2021/11/18 08:32:48;;;;;;;;;54.75;45.50;;;;;8.55;80.79;102266.72;5119579;27;45477;-76
2021/11/18 08:35:15;;;;;;;;;55.50;45.00;;;;;8.60;80.72;102261.44;5119822;27;46207;-76
2021/11/18 08:37:42;;;;;;;;;55.75;44.00;;;;;8.61;80.16;102264.06;5119897;27;45525;-68
2021/11/18 08:40:09;;;;;;;;;54.50;44.00;;;;;8.65;80.41;102264.03;5120410;27;45322;-75
2021/11/18 08:42:35;;;;;;;;;52.00;40.75;;;;;8.74;80.03;102269.25;5122202;27;45434;-76
2021/11/18 08:45:01;;;;;;;;;53.50;42.25;;;;;8.77;79.82;102270.09;5155828;27;46196;-75
2021/11/18 08:47:27;;;;;;;;;57.75;45.50;;;;;8.78;80.41;102263.09;5120843;27;45297;-74
2021/11/18 08:49:53;;;;;;;;;52.75;42.00;;;;;8.84;80.32;102268.31;5120568;27;45308;-76
2021/11/18 08:52:26;;;;;;;;;50.00;39.00;;;;;8.96;79.23;102275.22;5121915;27;45520;-75
2021/11/18 08:54:57;;;;;;;;;54.75;42.00;;;;;8.98;79.49;102280.47;5120854;27;45425;-74
2021/11/18 08:57:25;;;;;;;;;54.75;42.25;;;;;9.04;79.22;102269.94;5121437;27;45447;-75
2021/11/18 08:59:51;;;;;;;;;50.50;39.00;;;;;9.02;78.89;102264.72;5120464;27;45465;-73
2021/11/18 09:02:28;;;;;;;;;50.75;41.25;;;;;9.11;78.69;102273.41;5118895;27;45253;-75
2021/11/18 09:04:54;;;;;;;;;52.75;41.25;;;;;9.15;78.81;102269.88;5119437;27;46707;-73
2021/11/18 09:07:21;;;;;;;;;51.25;40.50;;;;;9.21;78.39;102275.94;5119552;27;45261;-74
2021/11/18 09:09:47;;;;;;;;;51.25;41.25;;;;;9.27;78.03;102274.16;5119414;27;45361;-72
2021/11/18 09:12:12;;;;;;;;;52.25;41.25;;;;;9.29;77.95;102273.25;5152328;27;45541;-74
2021/11/18 09:14:38;;;;;;;;;54.25;43.00;;;;;9.34;77.62;102275.84;5119527;27;45422;-74
2021/11/18 09:17:05;;;;;;;;;50.75;39.75;;;;;9.39;77.38;102278.44;5119355;27;45263;-75
2021/11/18 09:19:33;;;;;;;;;50.75;40.50;;;;;9.45;77.10;102278.41;5119628;27;45330;-75
2021/11/18 09:22:01;;;;;;;;;40.00;35.75;;;;;9.49;76.53;102285.38;5118797;27;45222;-73
2021/11/18 09:24:36;;;;;;;;;48.50;36.00;;;;;9.50;76.47;102274.84;5118116;27;45499;-76
2021/11/18 09:27:07;;;;;;;;;52.50;39.50;;;;;9.65;76.32;102279.09;5118006;27;45387;-75
2021/11/18 09:29:33;;;;;;;;;50.25;40.00;;;;;9.76;76.16;102284.25;5116311;27;45372;-74
2021/11/18 09:31:59;;;;;;;;;49.00;39.50;;;;;9.88;75.55;102288.50;5117786;27;45650;-75
2021/11/18 09:34:26;;;;;;;;;51.75;43.25;;;;;9.90;75.38;102286.72;5150698;27;48031;-75
2021/11/18 09:36:54;;;;;;;;;50.50;40.25;;;;;10.02;75.73;102283.13;5117433;27;45547;-76
2021/11/18 09:39:20;;;;;;;;;53.75;43.50;;;;;10.13;75.15;102284.75;5117123;27;45370;-74
2021/11/18 09:41:52;;;;;;;;;49.50;39.00;;;;;10.25;74.46;102291.66;5117922;27;45463;-77
2021/11/18 09:44:45;;;;;;;;;47.75;38.00;;;;;10.30;74.46;102285.44;5117880;27;47059;-76
2021/11/18 09:47:19;;;;;;;;;50.75;38.75;;;;;10.33;73.81;102289.81;5118210;27;45306;-75
2021/11/18 09:50:28;;;;;;;;;45.50;37.25;;;;;10.35;73.88;102283.63;5118479;27;45255;-77
2021/11/18 09:53:32;;;;;;;;;49.75;39.75;;;;;10.43;73.48;102291.47;5117603;27;45429;-77
2021/11/18 09:56:13;;;;;;;;;48.75;38.75;;;;;10.51;73.09;102296.63;5095330;27;45494;-77
2021/11/18 09:59:00;;;;;;;;;51.25;39.50;;;;;10.33;72.49;102263.50;5117210;27;45404;-75
2021/11/18 10:01:59;;;;;;;;;48.00;39.25;;;;;10.59;72.52;102297.41;5117638;27;45312;-77
2021/11/18 10:04:40;;;;;;;;;49.25;39.50;;;;;10.64;72.80;102295.59;5120680;27;45236;-76
2021/11/18 10:07:45;;;;;;;;;51.75;40.25;;;;;10.72;71.94;102298.13;5120707;27;46089;-75
2021/11/18 10:10:16;;;;;;;;;47.75;39.25;;;;;10.79;72.09;102305.03;5116975;27;45333;-76
2021/11/18 10:12:59;;;;;;;;;50.50;40.75;;;;;10.85;71.86;102303.22;5118521;27;45230;-74
2021/11/18 10:15:36;;;;;;;;;49.00;40.50;;;;;10.91;71.56;102308.41;5122506;27;45405;-76
2021/11/18 10:18:13;;;;;;;;;52.50;41.50;;;;;10.92;71.31;102305.75;5156112;27;46088;-74
2021/11/18 10:20:41;;;;;;;;;47.25;38.75;;;;;10.91;70.48;102306.66;5123356;27;45381;-71
2021/11/18 10:23:11;;;;;;;;;54.25;42.00;;;;;10.99;71.18;102308.31;5123813;27;45352;-75
2021/11/18 10:25:51;;;;;;;;;50.50;42.50;;;;;11.04;70.91;102319.63;5123044;27;45466;-75
2021/11/18 10:28:20;;;;;;;;;50.00;40.25;;;;;11.08;70.82;102316.94;5122534;27;45534;-75
2021/11/18 10:31:17;;;;;;;;;52.00;40.50;;;;;11.11;70.40;102316.03;5122692;27;45243;-76
2021/11/18 10:34:08;;;;;;;;;48.25;37.75;;;;;11.16;70.06;102316.81;5121776;27;45170;-75
2021/11/18 10:37:02;;;;;;;;;53.00;40.75;;;;;11.19;69.74;102318.56;5121666;27;45387;-75
2021/11/18 10:39:52;;;;;;;;;48.50;40.75;;;;;11.20;69.97;102331.69;5155086;27;48110;-76
2021/11/18 10:42:31;;;;;;;;;46.75;35.50;;;;;11.18;70.17;102328.22;5120532;27;45191;-73
2021/11/18 10:44:59;;;;;;;;;53.25;40.25;;;;;11.21;69.70;102330.78;5120596;27;45465;-75
2021/11/18 10:47:55;;;;;;;;;57.50;43.25;;;;;11.03;69.72;102296.84;5120905;27;45503;-74
2021/11/18 10:50:42;;;;;;;;;53.75;42.50;;;;;11.28;69.94;102335.97;5120198;27;45396;-75
2021/11/18 10:53:29;;;;;;;;;46.00;38.25;;;;;11.30;69.64;102321.00;5121170;27;45403;-75
2021/11/18 10:56:05;;;;;;;;;52.00;41.50;;;;;11.31;69.38;102322.75;5120116;27;45690;-73
2021/11/18 10:58:36;;;;;;;;;53.50;42.00;;;;;11.33;69.64;102319.22;5120727;27;45440;-73
2021/11/18 11:01:05;;;;;;;;;54.00;41.00;;;;;11.33;69.10;102319.22;5121818;27;45431;-76
2021/11/18 11:03:33;;;;;;;;;53.50;43.50;;;;;11.34;69.67;102326.22;5122779;27;45373;-74
2021/11/18 11:06:25;;;;;;;;;54.00;43.50;;;;;11.33;69.35;102316.59;5122978;27;45462;-78
2021/11/18 11:09:31;;;;;;;;;52.00;43.00;;;;;11.33;69.28;102326.25;5122717;27;45271;-75
2021/11/18 11:12:06;;;;;;;;;53.00;43.50;;;;;11.32;68.94;102324.50;5120386;27;46666;-75
2021/11/18 11:15:01;;;;;;;;;52.25;42.75;;;;;11.38;69.67;102316.50;5119398;27;45459;-75
2021/11/18 11:18:04;;;;;;;;;55.75;46.25;;;;;11.51;69.02;102309.28;5119930;27;45401;-75
2021/11/18 11:21:14;;;;;;;;;58.00;47.50;;;;;11.65;69.24;102309.03;5120148;27;45335;-73
2021/11/18 11:23:57;;;;;;;;;57.75;46.00;;;;;11.77;68.74;102305.31;5121862;27;46282;-74
2021/11/18 11:26:29;;;;;;;;;64.25;49.50;;;;;11.88;68.35;102307.78;5120741;27;45411;-74